首页
METAR-TAF:

METAR-TAF

机场 :

Tomahawk Regional Airport

Tomahawk, 威斯康辛州, 美国

纬度: 45-28-08N, 经度: 089-48-20W, 海拔: 453米

当前天气观测

该预报发布于18分钟前的07:55 UTC
风速3节,风向西
温度 -15°C
湿度 92%
气压 1010 hPa
能見度: 16.1公里
散云层高于1700英尺
散云层高于3000英尺

METAR: KTKV 100755Z AUTO 26003KT 10SM SCT017 SCT030 M15/M16 A2983 RMK AO2 T11491165

时间: 02:13 (08:13 UTC)


TAF: 丢失

超过4000个机场的气象观测和天气预报(METAR&TAF报告)。

可查询的气象台以黄色和红色小点在地图上表示。

将鼠标移到小点上方,可查看气象台名称。

然后点击查看天气观测和预报。

如需切换地图:点击带黑十字的绿色按钮放大地图;点击带横线的绿色按钮缩小地图;或者点击绿色箭头查看邻近地区的地图。


METAR-TAF: